Time;durP1;ratioP1;P1;durP2;ratioP2;P2;SDS_P1;SDS_P2;PMS_P1;PMS_P2;Temp;Humidity;BMP_temperature;BMP_pressure;BME280_temperature;BME280_humidity;BME280_pressure;Samples;Min_cycle;Max_cycle;Signal;HPM_P1;HPM_P2
2021/03/14 00:02:24;;;;;;;12.00;2.83;;;;;;;;;;10329372;28;20748;-80
2021/03/14 00:07:36;;;;;;;12.00;3.30;;;;;;;;;;10356035;28;20223;-80
2021/03/14 00:18:47;;;;;;;12.77;3.00;;;;;;;;;;10365772;28;20244;-81
2021/03/14 00:23:49;;;;;;;13.93;2.80;;;;;;;;;;10355211;28;20941;-81
2021/03/14 00:28:51;;;;;;;13.43;3.10;;;;;;;;;;10360866;28;20248;-81
2021/03/14 00:33:54;;;;;;;13.47;3.00;;;;;;;;;;10331566;28;20239;-80
2021/03/14 00:39:05;;;;;;;9.97;2.63;;;;;;;;;;10326872;28;20247;-80
2021/03/14 00:44:14;;;;;;;11.43;2.60;;;;;;;;;;10331850;28;20308;-80
2021/03/14 00:49:22;;;;;;;9.00;2.60;;;;;;;;;;10335038;28;20236;-81
2021/03/14 00:54:45;;;;;;;13.33;2.70;;;;;;;;;;10333681;28;20228;-81
2021/03/14 00:59:48;;;;;;;12.43;2.50;;;;;;;;;;10326693;28;20255;-81
2021/03/14 01:05:02;;;;;;;8.53;2.47;;;;;;;;;;10337131;28;20264;-80
2021/03/14 01:10:13;;;;;;;12.90;3.37;;;;;;;;;;10333939;28;20217;-81
2021/03/14 01:15:32;;;;;;;12.07;2.77;;;;;;;;;;10335522;28;20214;-79
2021/03/14 01:20:37;;;;;;;11.73;3.00;;;;;;;;;;10338977;28;20239;-81
2021/03/14 01:25:39;;;;;;;8.33;2.63;;;;;;;;;;10339556;28;20216;-80
2021/03/14 01:30:42;;;;;;;11.50;2.97;;;;;;;;;;10338629;28;20221;-80
2021/03/14 01:35:52;;;;;;;12.10;2.80;;;;;;;;;;10339480;28;20225;-81
2021/03/14 01:40:59;;;;;;;10.63;3.33;;;;;;;;;;10339647;28;20244;-80
2021/03/14 01:46:19;;;;;;;8.00;2.53;;;;;;;;;;10335136;28;21048;-80
2021/03/14 01:51:23;;;;;;;11.17;3.07;;;;;;;;;;10339665;28;20327;-81
2021/03/14 01:56:25;;;;;;;17.07;3.40;;;;;;;;;;10333632;28;20216;-80
2021/03/14 02:01:27;;;;;;;12.40;3.23;;;;;;;;;;10339964;28;20331;-80
2021/03/14 02:06:39;;;;;;;10.67;2.90;;;;;;;;;;10331764;28;20206;-80
2021/03/14 02:11:47;;;;;;;16.10;2.93;;;;;;;;;;10334104;28;20627;-80
2021/03/14 02:17:04;;;;;;;10.53;2.43;;;;;;;;;;10335187;28;20232;-80
2021/03/14 02:22:22;;;;;;;11.47;2.77;;;;;;;;;;10335522;28;20328;-81
2021/03/14 02:27:25;;;;;;;10.90;2.80;;;;;;;;;;10335964;28;20229;-80
2021/03/14 02:32:33;;;;;;;14.17;2.67;;;;;;;;;;10339921;28;20300;-80
2021/03/14 02:37:40;;;;;;;11.53;2.80;;;;;;;;;;10335866;28;20286;-81
2021/03/14 02:42:46;;;;;;;12.37;2.80;;;;;;;;;;10340175;28;20797;-81
2021/03/14 02:47:49;;;;;;;12.53;2.60;;;;;;;;;;10336375;28;20217;-80
2021/03/14 02:52:51;;;;;;;10.90;3.07;;;;;;;;;;10331111;28;20224;-80
2021/03/14 02:57:54;;;;;;;12.47;3.17;;;;;;;;;;10337600;28;20628;-80
2021/03/14 03:02:56;;;;;;;17.10;3.13;;;;;;;;;;10338783;28;20331;-81
2021/03/14 03:07:59;;;;;;;13.97;3.03;;;;;;;;;;10332247;28;20218;-79
2021/03/14 03:13:03;;;;;;;13.40;2.57;;;;;;;;;;10333878;28;21163;-80
2021/03/14 03:18:05;;;;;;;14.30;2.90;;;;;;;;;;10334591;28;20244;-80
2021/03/14 03:23:11;;;;;;;12.33;2.80;;;;;;;;;;10332374;28;20884;-80
2021/03/14 03:28:14;;;;;;;10.43;2.67;;;;;;;;;;10333137;28;20232;-80
2021/03/14 03:33:16;;;;;;;10.47;2.90;;;;;;;;;;10338910;28;20217;-80
2021/03/14 03:38:18;;;;;;;10.97;2.50;;;;;;;;;;10333748;28;20237;-80
2021/03/14 03:43:23;;;;;;;12.87;2.60;;;;;;;;;;10336493;28;20213;-80
2021/03/14 03:48:43;;;;;;;10.40;2.53;;;;;;;;;;10335900;28;20205;-81
2021/03/14 03:53:57;;;;;;;7.83;2.33;;;;;;;;;;10328655;28;20271;-80
2021/03/14 03:59:10;;;;;;;12.10;2.93;;;;;;;;;;10333153;28;20247;-81
2021/03/14 04:04:33;;;;;;;14.07;2.30;;;;;;;;;;10332764;28;20240;-81
2021/03/14 04:09:36;;;;;;;11.30;3.07;;;;;;;;;;10332216;28;20217;-81
2021/03/14 04:14:38;;;;;;;12.47;3.00;;;;;;;;;;10332726;28;20700;-80
2021/03/14 04:19:41;;;;;;;14.17;3.17;;;;;;;;;;10329951;28;20772;-79
2021/03/14 04:24:47;;;;;;;12.00;2.40;;;;;;;;;;10331305;28;20245;-80
2021/03/14 04:35:52;;;;;;;7.13;2.10;;;;;;;;;;10328342;28;20738;-80
2021/03/14 04:40:57;;;;;;;5.30;1.97;;;;;;;;;;10326782;28;20248;-80
2021/03/14 05:03:52;;;;;;;8.63;2.03;;;;;;;;;;10336615;28;20233;-79
2021/03/14 05:09:15;;;;;;;8.80;2.10;;;;;;;;;;10336528;28;20232;-79
2021/03/14 05:14:21;;;;;;;5.80;2.03;;;;;;;;;;10335675;28;20260;-80
2021/03/14 05:19:24;;;;;;;6.53;1.83;;;;;;;;;;10338672;28;20847;-80
2021/03/14 05:24:38;;;;;;;6.17;2.40;;;;;;;;;;10343179;28;20540;-80
2021/03/14 05:29:50;;;;;;;8.37;2.00;;;;;;;;;;10331678;28;20655;-80
2021/03/14 05:34:52;;;;;;;6.63;2.33;;;;;;;;;;10337952;28;20225;-80
2021/03/14 05:40:03;;;;;;;6.33;2.07;;;;;;;;;;10333692;28;20240;-81
2021/03/14 05:45:07;;;;;;;7.57;2.00;;;;;;;;;;10336319;28;20216;-82
2021/03/14 05:50:10;;;;;;;7.53;2.43;;;;;;;;;;10342444;28;20212;-81
2021/03/14 05:55:14;;;;;;;7.50;2.20;;;;;;;;;;10338361;28;20282;-81
2021/03/14 06:00:23;;;;;;;10.47;2.40;;;;;;;;;;10336213;28;20245;-80
2021/03/14 06:05:28;;;;;;;6.07;2.20;;;;;;;;;;10342232;28;20351;-81
2021/03/14 06:10:31;;;;;;;11.60;2.60;;;;;;;;;;10341433;28;20221;-81
2021/03/14 06:15:33;;;;;;;10.23;2.70;;;;;;;;;;10341532;28;20670;-80
2021/03/14 06:20:37;;;;;;;10.63;2.60;;;;;;;;;;10332524;28;20734;-81
2021/03/14 06:25:40;;;;;;;11.90;3.00;;;;;;;;;;10336848;28;20275;-81
2021/03/14 06:30:43;;;;;;;10.70;2.77;;;;;;;;;;10339511;28;20213;-81
2021/03/14 06:35:46;;;;;;;9.73;2.50;;;;;;;;;;10339391;28;20673;-81
2021/03/14 06:40:50;;;;;;;11.87;2.80;;;;;;;;;;10334588;28;20243;-81
2021/03/14 06:45:53;;;;;;;11.20;2.93;;;;;;;;;;10339521;28;20213;-81
2021/03/14 06:57:03;;;;;;;14.43;3.30;;;;;;;;;;10336378;28;20213;-81
2021/03/14 07:02:26;;;;;;;10.43;2.60;;;;;;;;;;10330842;28;20256;-80
2021/03/14 07:07:31;;;;;;;10.13;3.10;;;;;;;;;;10335423;28;20568;-80
2021/03/14 07:12:35;;;;;;;12.60;2.93;;;;;;;;;;10336090;28;20316;-80
2021/03/14 07:17:43;;;;;;;9.83;3.03;;;;;;;;;;10344237;28;20201;-80
2021/03/14 07:22:56;;;;;;;11.10;3.37;;;;;;;;;;10339087;28;20213;-80
2021/03/14 07:27:58;;;;;;;13.60;2.83;;;;;;;;;;10330672;28;20671;-80
2021/03/14 07:33:01;;;;;;;12.33;3.63;;;;;;;;;;10334597;28;20216;-80
2021/03/14 07:38:05;;;;;;;10.63;3.13;;;;;;;;;;10332736;28;20282;-80
2021/03/14 07:49:02;;;;;;;10.27;3.20;;;;;;;;;;10331832;28;20217;-79
2021/03/14 07:54:05;;;;;;;16.33;3.80;;;;;;;;;;10331819;28;20208;-80
2021/03/14 07:59:29;;;;;;;13.10;3.13;;;;;;;;;;10340475;28;20229;-80
2021/03/14 08:04:47;;;;;;;16.30;3.40;;;;;;;;;;10362267;28;20307;-81
2021/03/14 08:15:39;;;;;;;11.27;3.33;;;;;;;;;;10380664;28;20223;-80
2021/03/14 08:20:43;;;;;;;11.47;3.67;;;;;;;;;;10361128;28;20232;-81
2021/03/14 08:26:10;;;;;;;11.90;3.13;;;;;;;;;;10335103;28;20224;-79
2021/03/14 08:31:45;;;;;;;14.23;3.50;;;;;;;;;;10344984;28;20224;-79
2021/03/14 08:36:51;;;;;;;11.13;3.20;;;;;;;;;;10337127;28;20224;-79
2021/03/14 08:42:45;;;;;;;13.33;3.50;;;;;;;;;;10341302;28;20240;-79
2021/03/14 08:47:53;;;;;;;8.10;2.70;;;;;;;;;;10337487;28;20243;-78
2021/03/14 08:53:02;;;;;;;12.73;3.10;;;;;;;;;;10342456;28;20698;-78
2021/03/14 08:58:12;;;;;;;12.93;2.90;;;;;;;;;;10344121;28;20235;-81
2021/03/14 09:03:20;;;;;;;10.77;3.13;;;;;;;;;;10335983;28;20233;-80
2021/03/14 09:08:24;;;;;;;10.20;2.83;;;;;;;;;;10336552;28;20213;-81
2021/03/14 09:13:52;;;;;;;8.90;2.97;;;;;;;;;;10334419;28;20213;-78
2021/03/14 09:18:59;;;;;;;14.87;3.00;;;;;;;;;;10296811;28;20264;-77
2021/03/14 09:24:02;;;;;;;13.27;2.70;;;;;;;;;;10337359;28;20212;-82
2021/03/14 09:29:06;;;;;;;10.33;2.67;;;;;;;;;;10342713;28;20220;-81
2021/03/14 09:34:08;;;;;;;10.67;2.60;;;;;;;;;;10332063;28;20228;-81
2021/03/14 09:39:20;;;;;;;9.50;2.30;;;;;;;;;;10337340;28;20581;-82
2021/03/14 09:44:22;;;;;;;7.03;1.97;;;;;;;;;;10336142;28;20217;-82
2021/03/14 09:49:24;;;;;;;7.70;2.03;;;;;;;;;;10338529;28;20242;-82
2021/03/14 09:54:42;;;;;;;5.37;1.50;;;;;;;;;;10335544;28;20267;-85
2021/03/14 09:59:44;;;;;;;6.50;1.50;;;;;;;;;;10346815;28;20244;-84
2021/03/14 10:04:48;;;;;;;6.60;1.40;;;;;;;;;;10339914;28;20247;-83
2021/03/14 10:09:51;;;;;;;9.03;2.00;;;;;;;;;;10335093;28;20304;-83
2021/03/14 10:14:54;;;;;;;10.93;2.53;;;;;;;;;;10335302;28;20213;-84
2021/03/14 10:19:57;;;;;;;7.77;2.43;;;;;;;;;;10329896;28;20251;-84
2021/03/14 10:25:03;;;;;;;9.57;2.43;;;;;;;;;;10337202;28;20205;-85
2021/03/14 10:30:05;;;;;;;12.63;2.57;;;;;;;;;;10339772;28;21134;-83
2021/03/14 10:35:11;;;;;;;14.27;2.70;;;;;;;;;;10337840;28;20316;-84
2021/03/14 10:40:26;;;;;;;9.83;2.77;;;;;;;;;;10330104;28;20348;-83
2021/03/14 10:45:28;;;;;;;8.30;2.73;;;;;;;;;;10342122;28;20244;-84
2021/03/14 10:50:31;;;;;;;11.33;3.00;;;;;;;;;;10334928;28;20213;-84
2021/03/14 10:55:37;;;;;;;14.03;2.70;;;;;;;;;;10338770;28;20219;-84
2021/03/14 11:00:42;;;;;;;12.40;2.30;;;;;;;;;;10334050;28;20241;-82
2021/03/14 11:06:19;;;;;;;11.50;2.23;;;;;;;;;;10334850;28;20693;-83
2021/03/14 11:11:26;;;;;;;13.67;2.57;;;;;;;;;;10334259;28;20845;-83
2021/03/14 11:16:28;;;;;;;8.83;2.57;;;;;;;;;;10333808;28;20235;-83
2021/03/14 11:21:30;;;;;;;11.07;3.00;;;;;;;;;;10335048;28;20232;-83
2021/03/14 11:26:40;;;;;;;12.70;2.60;;;;;;;;;;10332871;28;20312;-84
2021/03/14 11:31:42;;;;;;;11.80;3.33;;;;;;;;;;10332991;28;20315;-84
2021/03/14 11:36:48;;;;;;;9.07;2.67;;;;;;;;;;10339938;28;20283;-82
2021/03/14 11:41:51;;;;;;;10.80;2.10;;;;;;;;;;10330049;28;20239;-82
2021/03/14 11:46:54;;;;;;;8.33;2.30;;;;;;;;;;10332025;28;20226;-82
2021/03/14 11:52:07;;;;;;;6.47;2.33;;;;;;;;;;10330214;28;20224;-84
2021/03/14 11:57:11;;;;;;;8.23;2.30;;;;;;;;;;10338217;28;20613;-83
2021/03/14 12:02:17;;;;;;;10.00;2.47;;;;;;;;;;10328609;28;20232;-82
2021/03/14 12:07:19;;;;;;;11.10;3.30;;;;;;;;;;10336632;28;20418;-83
2021/03/14 12:12:22;;;;;;;10.57;2.57;;;;;;;;;;10339247;28;20221;-82
2021/03/14 12:17:27;;;;;;;9.43;2.80;;;;;;;;;;10335915;28;20224;-84
2021/03/14 12:22:35;;;;;;;13.40;2.93;;;;;;;;;;10333659;28;20674;-84
2021/03/14 12:27:38;;;;;;;10.37;2.33;;;;;;;;;;10329346;28;20212;-84
2021/03/14 12:32:40;;;;;;;9.00;2.60;;;;;;;;;;10330568;28;20220;-84
2021/03/14 12:37:43;;;;;;;8.60;2.57;;;;;;;;;;10328460;28;20708;-86
2021/03/14 12:42:49;;;;;;;14.00;2.60;;;;;;;;;;10331753;28;20248;-83
2021/03/14 12:47:52;;;;;;;14.47;2.60;;;;;;;;;;10333231;28;20650;-84
2021/03/14 12:52:56;;;;;;;10.20;2.37;;;;;;;;;;10331310;28;20228;-84
2021/03/14 12:57:59;;;;;;;14.20;2.80;;;;;;;;;;10331543;28;20602;-84
2021/03/14 13:03:01;;;;;;;8.63;2.37;;;;;;;;;;10328464;28;20249;-83
2021/03/14 13:08:03;;;;;;;15.67;3.03;;;;;;;;;;10334193;28;20572;-85
2021/03/14 13:13:07;;;;;;;13.93;2.90;;;;;;;;;;10342255;28;20299;-86
2021/03/14 13:18:10;;;;;;;10.57;2.60;;;;;;;;;;10346584;28;20225;-86
2021/03/14 13:23:14;;;;;;;10.20;2.50;;;;;;;;;;10333626;28;22494;-82
2021/03/14 13:28:17;;;;;;;13.13;2.97;;;;;;;;;;10337130;28;20223;-82
2021/03/14 13:33:19;;;;;;;8.93;2.83;;;;;;;;;;10338869;28;20228;-84
2021/03/14 13:38:22;;;;;;;15.10;2.67;;;;;;;;;;10333682;28;20231;-83
2021/03/14 13:43:32;;;;;;;12.80;2.70;;;;;;;;;;10347182;28;20218;-83
2021/03/14 13:48:34;;;;;;;12.10;3.13;;;;;;;;;;10327723;28;20215;-83
2021/03/14 13:53:37;;;;;;;15.40;3.17;;;;;;;;;;10330992;28;20640;-84
2021/03/14 13:58:40;;;;;;;10.33;2.60;;;;;;;;;;10329809;28;20286;-84
2021/03/14 14:04:07;;;;;;;9.97;2.47;;;;;;;;;;10349328;23;20245;-82
2021/03/14 14:09:09;;;;;;;16.17;3.03;;;;;;;;;;10352842;28;20219;-85
2021/03/14 14:14:11;;;;;;;13.40;2.93;;;;;;;;;;10361641;28;20227;-84
2021/03/14 14:19:13;;;;;;;10.43;2.33;;;;;;;;;;10357786;28;20546;-85
2021/03/14 14:24:16;;;;;;;7.77;2.27;;;;;;;;;;10357723;28;20631;-85
2021/03/14 14:29:19;;;;;;;9.27;2.57;;;;;;;;;;10360774;28;20688;-86
2021/03/14 14:34:21;;;;;;;10.83;2.57;;;;;;;;;;10355502;28;20927;-85
2021/03/14 14:39:24;;;;;;;10.63;2.60;;;;;;;;;;10358680;28;20242;-85
2021/03/14 14:44:27;;;;;;;11.93;2.40;;;;;;;;;;10357881;28;20212;-84
2021/03/14 14:49:33;;;;;;;9.93;2.60;;;;;;;;;;10360907;28;20221;-86
2021/03/14 14:54:36;;;;;;;14.37;2.97;;;;;;;;;;10352550;28;20244;-85
2021/03/14 14:59:39;;;;;;;10.60;2.67;;;;;;;;;;10363806;28;20331;-80
2021/03/14 15:04:41;;;;;;;18.23;3.03;;;;;;;;;;10363481;28;20239;-86
2021/03/14 15:09:48;;;;;;;16.17;2.73;;;;;;;;;;10360648;28;21123;-85
2021/03/14 15:14:51;;;;;;;12.43;2.50;;;;;;;;;;10366407;28;20220;-87
2021/03/14 15:19:56;;;;;;;11.57;2.63;;;;;;;;;;10363060;28;20358;-86
2021/03/14 15:24:58;;;;;;;9.97;2.40;;;;;;;;;;10363017;28;20692;-86
2021/03/14 15:30:01;;;;;;;14.43;2.67;;;;;;;;;;10365419;28;20612;-87
2021/03/14 15:35:03;;;;;;;16.43;2.73;;;;;;;;;;10359871;28;20216;-82
2021/03/14 15:40:06;;;;;;;13.93;3.00;;;;;;;;;;10350423;28;20235;-84
2021/03/14 15:45:10;;;;;;;12.50;2.50;;;;;;;;;;10361771;28;20218;-84
2021/03/14 15:50:13;;;;;;;12.43;2.97;;;;;;;;;;10358513;28;20219;-85
2021/03/14 15:55:16;;;;;;;10.80;2.67;;;;;;;;;;10358334;28;20246;-83
2021/03/14 16:00:19;;;;;;;11.83;2.43;;;;;;;;;;10358829;28;20593;-85
2021/03/14 16:05:22;;;;;;;14.20;3.00;;;;;;;;;;10367870;28;20232;-85
2021/03/14 16:10:24;;;;;;;13.40;2.87;;;;;;;;;;10363110;28;20220;-84
2021/03/14 16:15:29;;;;;;;11.30;2.57;;;;;;;;;;10365216;28;20276;-85
2021/03/14 16:20:31;;;;;;;13.60;3.00;;;;;;;;;;10353499;28;20233;-87
2021/03/14 16:25:33;;;;;;;11.40;2.50;;;;;;;;;;10352201;28;20307;-86
2021/03/14 16:30:37;;;;;;;13.00;2.87;;;;;;;;;;10362127;28;20216;-85
2021/03/14 16:35:40;;;;;;;13.63;2.90;;;;;;;;;;10361941;28;20212;-86
2021/03/14 16:40:43;;;;;;;13.20;3.00;;;;;;;;;;10359817;28;20733;-86
2021/03/14 16:45:46;;;;;;;12.77;3.07;;;;;;;;;;10366175;28;20219;-86
2021/03/14 16:50:49;;;;;;;13.70;2.70;;;;;;;;;;10358032;28;20220;-87
2021/03/14 16:55:52;;;;;;;10.30;3.33;;;;;;;;;;10361300;28;20205;-86
2021/03/14 17:00:55;;;;;;;14.40;3.17;;;;;;;;;;10375653;28;20244;-86
2021/03/14 17:05:58;;;;;;;10.87;2.73;;;;;;;;;;10364451;28;20267;-87
2021/03/14 17:11:03;;;;;;;12.40;2.73;;;;;;;;;;10365177;28;20212;-86
2021/03/14 17:16:06;;;;;;;13.67;2.90;;;;;;;;;;10365777;28;20979;-86
2021/03/14 17:21:09;;;;;;;14.00;3.37;;;;;;;;;;10367514;28;20254;-85
2021/03/14 17:26:11;;;;;;;9.33;2.57;;;;;;;;;;10406790;28;20248;-85
2021/03/14 17:31:17;;;;;;;13.87;3.10;;;;;;;;;;10406369;28;20265;-85
2021/03/14 17:36:20;;;;;;;13.00;3.00;;;;;;;;;;10398398;28;20280;-85
2021/03/14 17:41:22;;;;;;;14.50;2.90;;;;;;;;;;10401403;28;20335;-85
2021/03/14 17:46:29;;;;;;;13.30;2.97;;;;;;;;;;10387558;28;20235;-84
2021/03/14 17:51:31;;;;;;;11.23;3.10;;;;;;;;;;10391350;28;20212;-84
2021/03/14 17:56:35;;;;;;;9.67;2.80;;;;;;;;;;10369640;28;20228;-82
2021/03/14 18:01:38;;;;;;;10.97;2.90;;;;;;;;;;10366981;28;20339;-82
2021/03/14 18:06:40;;;;;;;13.77;3.10;;;;;;;;;;10359088;28;22578;-83
2021/03/14 18:11:43;;;;;;;10.30;2.80;;;;;;;;;;10359752;28;20220;-82
2021/03/14 18:16:46;;;;;;;11.57;3.20;;;;;;;;;;10363292;28;20240;-80
2021/03/14 18:21:48;;;;;;;10.07;3.10;;;;;;;;;;10361154;28;20323;-81
2021/03/14 18:26:50;;;;;;;16.83;3.80;;;;;;;;;;10353476;28;20216;-79
2021/03/14 18:31:53;;;;;;;11.47;3.33;;;;;;;;;;10362037;28;20220;-80
2021/03/14 18:36:57;;;;;;;10.80;3.13;;;;;;;;;;10352856;28;20209;-81
2021/03/14 18:41:59;;;;;;;11.13;3.03;;;;;;;;;;10365010;28;20270;-81
2021/03/14 18:47:02;;;;;;;10.37;2.57;;;;;;;;;;10354581;28;20410;-82
2021/03/14 18:52:04;;;;;;;11.80;3.10;;;;;;;;;;10365544;28;20233;-82
2021/03/14 18:57:06;;;;;;;11.13;2.80;;;;;;;;;;10361751;28;20208;-82
2021/03/14 19:02:09;;;;;;;7.73;2.60;;;;;;;;;;10360854;28;20240;-82
2021/03/14 19:07:11;;;;;;;6.67;2.30;;;;;;;;;;10363445;28;20773;-82
2021/03/14 19:12:14;;;;;;;8.87;2.70;;;;;;;;;;10360203;28;20223;-83
2021/03/14 19:17:21;;;;;;;7.07;2.30;;;;;;;;;;10357664;28;20692;-82
2021/03/14 19:22:23;;;;;;;9.47;2.87;;;;;;;;;;10358555;28;20236;-83
2021/03/14 19:27:25;;;;;;;6.27;2.50;;;;;;;;;;10363500;28;20254;-82
2021/03/14 19:32:28;;;;;;;8.90;2.57;;;;;;;;;;10352830;28;20685;-81
2021/03/14 19:37:31;;;;;;;8.27;2.67;;;;;;;;;;10360826;28;20231;-81
2021/03/14 19:42:37;;;;;;;9.73;2.93;;;;;;;;;;10359265;28;20853;-81
2021/03/14 19:47:41;;;;;;;8.80;2.60;;;;;;;;;;10358950;28;20228;-80
2021/03/14 19:52:43;;;;;;;8.57;2.73;;;;;;;;;;10359295;28;20229;-80
2021/03/14 19:57:45;;;;;;;10.40;2.90;;;;;;;;;;10357289;28;20230;-81
2021/03/14 20:02:48;;;;;;;10.70;3.57;;;;;;;;;;10353445;28;20236;-82
2021/03/14 20:07:59;;;;;;;8.13;2.87;;;;;;;;;;10354977;28;20246;-81
2021/03/14 20:13:01;;;;;;;12.40;2.80;;;;;;;;;;10365149;28;20640;-81
2021/03/14 20:18:05;;;;;;;7.30;2.90;;;;;;;;;;10365227;28;20216;-82
2021/03/14 20:23:07;;;;;;;8.37;2.73;;;;;;;;;;10366363;28;20422;-81
2021/03/14 20:28:09;;;;;;;8.90;3.47;;;;;;;;;;10366299;28;20217;-81
2021/03/14 20:33:12;;;;;;;10.10;3.27;;;;;;;;;;10371171;28;20223;-81
2021/03/14 20:38:15;;;;;;;11.53;3.53;;;;;;;;;;10365046;28;20729;-80
2021/03/14 20:43:17;;;;;;;10.23;4.20;;;;;;;;;;10362949;28;20293;-82
2021/03/14 20:48:20;;;;;;;15.43;4.07;;;;;;;;;;10367705;28;20204;-81
2021/03/14 20:53:23;;;;;;;13.57;3.43;;;;;;;;;;10370016;28;20217;-82
2021/03/14 20:58:25;;;;;;;12.70;3.73;;;;;;;;;;10366609;28;20224;-82
2021/03/14 21:03:28;;;;;;;13.70;3.20;;;;;;;;;;10362237;28;20704;-81
2021/03/14 21:08:30;;;;;;;13.17;2.93;;;;;;;;;;10362876;28;20221;-81
2021/03/14 21:13:32;;;;;;;12.23;3.27;;;;;;;;;;10373164;28;20289;-81
2021/03/14 21:18:35;;;;;;;16.97;3.60;;;;;;;;;;10371000;28;20247;-81
2021/03/14 21:23:37;;;;;;;13.27;3.00;;;;;;;;;;10361079;28;20251;-81
2021/03/14 21:28:40;;;;;;;8.80;2.30;;;;;;;;;;10368711;28;20205;-81
2021/03/14 21:33:43;;;;;;;9.80;2.43;;;;;;;;;;10374659;28;20382;-81
2021/03/14 21:38:45;;;;;;;10.00;2.47;;;;;;;;;;10368967;28;20217;-81
2021/03/14 21:43:47;;;;;;;12.33;2.90;;;;;;;;;;10366327;28;20328;-81
2021/03/14 21:48:52;;;;;;;12.10;2.67;;;;;;;;;;10370191;28;20208;-81
2021/03/14 21:53:55;;;;;;;7.53;2.23;;;;;;;;;;10361797;28;20216;-81
2021/03/14 21:58:57;;;;;;;8.47;2.50;;;;;;;;;;10371610;28;20360;-81
2021/03/14 22:04:00;;;;;;;6.63;1.77;;;;;;;;;;10365428;28;20245;-81
2021/03/14 22:09:02;;;;;;;7.50;2.07;;;;;;;;;;10363626;28;20720;-81
2021/03/14 22:14:04;;;;;;;9.67;2.03;;;;;;;;;;10366823;28;20235;-80
2021/03/14 22:19:08;;;;;;;7.37;2.00;;;;;;;;;;10360331;28;20299;-80
2021/03/14 22:24:10;;;;;;;7.33;1.87;;;;;;;;;;10367966;28;20250;-81
2021/03/14 22:29:12;;;;;;;7.53;2.10;;;;;;;;;;10367220;28;20215;-81
2021/03/14 22:34:20;;;;;;;8.53;2.10;;;;;;;;;;10363044;28;20212;-81
2021/03/14 22:39:22;;;;;;;7.00;1.80;;;;;;;;;;10358499;28;20728;-81
2021/03/14 22:44:24;;;;;;;5.77;1.97;;;;;;;;;;10364895;28;20212;-81
2021/03/14 22:49:27;;;;;;;6.73;2.10;;;;;;;;;;10357888;28;20220;-81
2021/03/14 22:54:29;;;;;;;7.17;2.23;;;;;;;;;;10355766;28;20231;-81
2021/03/14 22:59:34;;;;;;;8.00;2.13;;;;;;;;;;10362870;28;20270;-81
2021/03/14 23:04:37;;;;;;;6.87;1.90;;;;;;;;;;10359727;28;20590;-81
2021/03/14 23:09:38;;;;;;;6.27;2.10;;;;;;;;;;10364759;28;20220;-81
2021/03/14 23:14:41;;;;;;;6.73;2.37;;;;;;;;;;10357285;28;20216;-81
2021/03/14 23:19:43;;;;;;;8.60;2.40;;;;;;;;;;10360585;28;20226;-81
2021/03/14 23:24:46;;;;;;;6.63;2.20;;;;;;;;;;10363471;28;20896;-81
2021/03/14 23:29:48;;;;;;;6.07;2.10;;;;;;;;;;10356177;28;20853;-82
2021/03/14 23:34:56;;;;;;;7.33;2.00;;;;;;;;;;10371955;28;20692;-81
2021/03/14 23:39:57;;;;;;;6.17;2.40;;;;;;;;;;10358444;28;20310;-82
2021/03/14 23:45:00;;;;;;;9.00;2.50;;;;;;;;;;10357965;28;20684;-81
2021/03/14 23:50:03;;;;;;;10.60;2.00;;;;;;;;;;10358504;28;20258;-81
2021/03/14 23:55:06;;;;;;;10.27;2.13;;;;;;;;;;10354249;28;20213;-82
